createdAt,value
2022-12-14T00:00:02.413Z,1.20
2022-12-14T00:10:02.148Z,1.30
2022-12-14T00:20:01.290Z,1.20
2022-12-14T00:30:00.999Z,1.30
2022-12-14T00:40:01.042Z,1.60
2022-12-14T00:50:01.311Z,1.20
2022-12-14T01:00:00.201Z,1.30
2022-12-14T01:10:01.429Z,1.50
2022-12-14T01:20:01.531Z,1.20
2022-12-14T01:30:01.202Z,1.10
2022-12-14T01:40:01.280Z,1.30
2022-12-14T01:50:01.018Z,1.30
2022-12-14T02:00:06.784Z,1.40
2022-12-14T02:10:01.529Z,1.20
2022-12-14T02:20:02.809Z,1.50
2022-12-14T02:30:01.103Z,1.40
2022-12-14T02:40:01.036Z,1.30
2022-12-14T02:50:01.456Z,1.20
2022-12-14T03:00:01.753Z,4.20
2022-12-14T03:10:02.340Z,1.80
2022-12-14T03:20:01.814Z,1.40
2022-12-14T03:30:01.331Z,1.40
2022-12-14T03:40:01.018Z,1.70
2022-12-14T03:50:02.119Z,2.80
2022-12-14T04:00:01.102Z,2.60
2022-12-14T04:10:01.043Z,2.30
2022-12-14T04:20:01.413Z,2.80
2022-12-14T04:30:01.030Z,2.50
2022-12-14T04:40:01.353Z,1.70
2022-12-14T04:50:01.483Z,3.20
2022-12-14T05:00:01.231Z,4.20
2022-12-14T05:10:01.272Z,4.20
2022-12-14T05:20:01.314Z,2.30
2022-12-14T05:30:00.148Z,7.40
2022-12-14T05:40:01.053Z,7.10
2022-12-14T05:50:01.318Z,3.90
2022-12-14T06:00:01.816Z,3.50
2022-12-14T06:10:01.507Z,4.80
2022-12-14T06:20:00.164Z,4.60
2022-12-14T06:30:00.183Z,5.10
2022-12-14T06:40:00.976Z,5.80
2022-12-14T06:50:00.145Z,4.70
2022-12-14T07:00:00.124Z,3.80
2022-12-14T07:10:01.480Z,8.30
2022-12-14T07:20:00.143Z,6.70
2022-12-14T07:30:01.035Z,11.00
2022-12-14T07:40:01.016Z,8.40
2022-12-14T07:50:01.092Z,6.10
2022-12-14T08:00:00.124Z,5.10
2022-12-14T08:10:00.167Z,8.50
2022-12-14T08:20:01.065Z,8.20
2022-12-14T08:30:01.246Z,10.10
2022-12-14T08:40:02.083Z,6.00
2022-12-14T08:50:01.006Z,8.40
2022-12-14T09:00:04.437Z,6.20
2022-12-14T09:10:03.350Z,2.20
2022-12-14T09:20:01.080Z,1.90
2022-12-14T09:30:00.170Z,3.70
2022-12-14T09:40:01.077Z,3.30
2022-12-14T09:50:01.495Z,3.00
2022-12-14T10:00:00.966Z,2.30
2022-12-14T10:10:02.502Z,2.20
2022-12-14T10:20:01.201Z,2.30
2022-12-14T10:30:01.222Z,3.20
2022-12-14T10:40:04.607Z,1.90
2022-12-14T10:50:01.112Z,2.80
2022-12-14T11:00:08.807Z,2.80
2022-12-14T11:10:03.186Z,2.60
2022-12-14T11:20:01.521Z,2.20
2022-12-14T11:30:01.249Z,2.80
2022-12-14T11:40:01.735Z,4.30
2022-12-14T11:50:02.848Z,2.60
2022-12-14T12:00:02.088Z,2.90
2022-12-14T12:10:01.284Z,4.70
2022-12-14T12:20:00.156Z,5.60
2022-12-14T12:30:00.136Z,2.40
2022-12-14T12:40:01.588Z,3.90
2022-12-14T12:50:01.289Z,3.00
2022-12-14T13:00:01.097Z,2.30
2022-12-14T13:10:05.469Z,2.00
2022-12-14T13:20:00.676Z,3.00
2022-12-14T13:30:01.662Z,1.30
2022-12-14T13:40:01.025Z,1.70
2022-12-14T14:00:01.711Z,1.30
2022-12-14T14:10:02.677Z,1.60
2022-12-14T14:20:03.543Z,1.80
2022-12-14T14:30:02.050Z,1.60
2022-12-14T14:40:13.200Z,1.10
2022-12-14T14:50:01.459Z,1.10
2022-12-14T15:00:01.733Z,1.40
2022-12-14T15:10:01.730Z,1.10
2022-12-14T15:20:01.154Z,1.20
2022-12-14T15:30:01.053Z,1.10
2022-12-14T15:40:03.757Z,1.10
2022-12-14T15:50:06.917Z,1.10
2022-12-14T16:00:04.412Z,1.10
2022-12-14T16:10:01.076Z,1.10
2022-12-14T16:20:01.420Z,1.10
2022-12-14T16:30:01.101Z,1.10
2022-12-14T16:40:01.674Z,1.10
2022-12-14T16:50:01.068Z,1.10
2022-12-14T17:00:02.157Z,1.10
2022-12-14T17:10:00.226Z,1.20
2022-12-14T17:20:01.088Z,1.20
2022-12-14T17:30:01.275Z,1.10
2022-12-14T17:40:01.328Z,1.20
2022-12-14T17:50:00.995Z,1.20
2022-12-14T18:00:04.197Z,1.40
2022-12-14T18:10:01.076Z,1.10
2022-12-14T18:20:02.265Z,1.10
2022-12-14T18:30:00.970Z,1.10
2022-12-14T18:40:01.296Z,1.20
2022-12-14T18:50:01.255Z,1.30
2022-12-14T19:00:01.070Z,1.10
2022-12-14T19:10:01.320Z,1.10
2022-12-14T19:20:00.166Z,1.20
2022-12-14T19:30:01.302Z,1.30
2022-12-14T19:40:00.177Z,1.10
2022-12-14T19:50:01.234Z,1.10
2022-12-14T20:00:01.528Z,1.10
2022-12-14T20:10:00.974Z,1.20
2022-12-14T20:20:00.167Z,1.10
2022-12-14T20:30:02.933Z,1.10
2022-12-14T20:40:02.032Z,1.20
2022-12-14T20:50:01.201Z,1.20
2022-12-14T21:00:01.318Z,1.20
2022-12-14T21:10:01.202Z,1.20
2022-12-14T21:20:01.087Z,1.30
2022-12-14T21:30:01.437Z,6.10
2022-12-14T21:40:02.231Z,1.50
2022-12-14T21:50:02.099Z,1.10
2022-12-14T22:00:01.091Z,1.30
2022-12-14T22:10:00.993Z,1.90
2022-12-14T22:20:01.309Z,1.30
2022-12-14T22:30:01.336Z,1.10
2022-12-14T22:50:00.961Z,1.00
2022-12-14T23:00:01.137Z,1.10
2022-12-14T23:10:01.307Z,1.20
2022-12-14T23:20:04.548Z,1.10
2022-12-14T23:30:01.091Z,1.10
2022-12-14T23:40:01.312Z,1.10
2022-12-14T23:50:01.088Z,1.10
